sensor_id;sensor_type;location;lat;lon;timestamp;P1;durP1;ratioP1;P2;durP2;ratioP2
2972;SDS011;1496;51.404;7.232;2022-11-21T00:00:42;23.13;;;15.33;;
2972;SDS011;1496;51.404;7.232;2022-11-21T00:03:09;25.50;;;15.27;;
2972;SDS011;1496;51.404;7.232;2022-11-21T00:05:38;20.47;;;14.20;;
2972;SDS011;1496;51.404;7.232;2022-11-21T00:08:11;20.13;;;13.20;;
2972;SDS011;1496;51.404;7.232;2022-11-21T00:10:38;20.80;;;13.80;;
2972;SDS011;1496;51.404;7.232;2022-11-21T00:13:05;19.73;;;12.73;;
2972;SDS011;1496;51.404;7.232;2022-11-21T00:15:32;20.43;;;12.43;;
2972;SDS011;1496;51.404;7.232;2022-11-21T00:18:00;18.90;;;12.00;;
2972;SDS011;1496;51.404;7.232;2022-11-21T00:20:27;19.87;;;13.77;;
2972;SDS011;1496;51.404;7.232;2022-11-21T00:22:52;19.67;;;12.80;;
2972;SDS011;1496;51.404;7.232;2022-11-21T00:25:18;22.97;;;13.50;;
2972;SDS011;1496;51.404;7.232;2022-11-21T00:27:44;22.00;;;12.67;;
2972;SDS011;1496;51.404;7.232;2022-11-21T00:30:09;15.90;;;11.90;;
2972;SDS011;1496;51.404;7.232;2022-11-21T00:32:36;20.47;;;13.90;;
2972;SDS011;1496;51.404;7.232;2022-11-21T00:35:02;23.70;;;12.93;;
2972;SDS011;1496;51.404;7.232;2022-11-21T00:37:30;20.50;;;12.20;;
2972;SDS011;1496;51.404;7.232;2022-11-21T00:39:57;18.73;;;11.70;;
2972;SDS011;1496;51.404;7.232;2022-11-21T00:42:22;20.57;;;12.77;;
2972;SDS011;1496;51.404;7.232;2022-11-21T00:44:48;19.10;;;13.30;;
2972;SDS011;1496;51.404;7.232;2022-11-21T00:47:14;21.00;;;13.83;;
2972;SDS011;1496;51.404;7.232;2022-11-21T00:49:39;20.57;;;13.20;;
2972;SDS011;1496;51.404;7.232;2022-11-21T00:52:05;23.10;;;14.20;;
2972;SDS011;1496;51.404;7.232;2022-11-21T00:54:31;20.60;;;12.20;;
2972;SDS011;1496;51.404;7.232;2022-11-21T00:56:56;25.73;;;15.00;;
2972;SDS011;1496;51.404;7.232;2022-11-21T00:59:22;20.97;;;14.13;;
2972;SDS011;1496;51.404;7.232;2022-11-21T01:01:47;25.87;;;16.30;;
2972;SDS011;1496;51.404;7.232;2022-11-21T01:04:13;27.20;;;17.40;;
2972;SDS011;1496;51.404;7.232;2022-11-21T01:06:38;24.00;;;17.30;;
2972;SDS011;1496;51.404;7.232;2022-11-21T01:09:04;28.40;;;16.80;;
2972;SDS011;1496;51.404;7.232;2022-11-21T01:11:30;30.27;;;17.53;;
2972;SDS011;1496;51.404;7.232;2022-11-21T01:13:56;27.93;;;17.93;;
2972;SDS011;1496;51.404;7.232;2022-11-21T01:16:23;24.43;;;16.53;;
2972;SDS011;1496;51.404;7.232;2022-11-21T01:18:50;28.50;;;18.73;;
2972;SDS011;1496;51.404;7.232;2022-11-21T01:21:23;32.63;;;18.70;;
2972;SDS011;1496;51.404;7.232;2022-11-21T01:23:50;27.87;;;17.43;;
2972;SDS011;1496;51.404;7.232;2022-11-21T01:26:17;30.23;;;17.20;;
2972;SDS011;1496;51.404;7.232;2022-11-21T01:28:48;30.30;;;19.03;;
2972;SDS011;1496;51.404;7.232;2022-11-21T01:31:18;30.00;;;19.20;;
2972;SDS011;1496;51.404;7.232;2022-11-21T01:33:49;32.20;;;19.03;;
2972;SDS011;1496;51.404;7.232;2022-11-21T01:36:16;28.67;;;17.57;;
2972;SDS011;1496;51.404;7.232;2022-11-21T01:38:44;31.17;;;18.63;;
2972;SDS011;1496;51.404;7.232;2022-11-21T01:41:12;23.80;;;15.87;;
2972;SDS011;1496;51.404;7.232;2022-11-21T01:43:40;34.60;;;19.73;;
2972;SDS011;1496;51.404;7.232;2022-11-21T01:46:21;29.50;;;18.00;;
2972;SDS011;1496;51.404;7.232;2022-11-21T01:48:58;30.43;;;18.57;;
2972;SDS011;1496;51.404;7.232;2022-11-21T01:56:39;31.73;;;17.03;;
2972;SDS011;1496;51.404;7.232;2022-11-21T01:59:10;28.93;;;17.00;;
2972;SDS011;1496;51.404;7.232;2022-11-21T02:01:40;30.87;;;18.30;;
2972;SDS011;1496;51.404;7.232;2022-11-21T02:04:08;28.53;;;16.00;;
2972;SDS011;1496;51.404;7.232;2022-11-21T02:06:34;29.80;;;17.63;;
2972;SDS011;1496;51.404;7.232;2022-11-21T02:09:01;32.43;;;17.80;;
2972;SDS011;1496;51.404;7.232;2022-11-21T02:11:34;28.10;;;17.33;;
2972;SDS011;1496;51.404;7.232;2022-11-21T02:14:03;29.00;;;17.00;;
2972;SDS011;1496;51.404;7.232;2022-11-21T02:16:29;27.80;;;19.10;;
2972;SDS011;1496;51.404;7.232;2022-11-21T02:18:55;36.60;;;19.23;;
2972;SDS011;1496;51.404;7.232;2022-11-21T02:26:49;32.97;;;18.83;;
2972;SDS011;1496;51.404;7.232;2022-11-21T02:29:14;37.37;;;19.60;;
2972;SDS011;1496;51.404;7.232;2022-11-21T02:31:40;33.97;;;19.20;;
2972;SDS011;1496;51.404;7.232;2022-11-21T02:34:06;33.30;;;20.03;;
2972;SDS011;1496;51.404;7.232;2022-11-21T02:36:39;31.47;;;19.03;;
2972;SDS011;1496;51.404;7.232;2022-11-21T02:39:09;33.73;;;19.43;;
2972;SDS011;1496;51.404;7.232;2022-11-21T02:41:41;32.63;;;18.83;;
2972;SDS011;1496;51.404;7.232;2022-11-21T02:44:21;37.87;;;20.53;;
2972;SDS011;1496;51.404;7.232;2022-11-21T02:46:53;34.43;;;20.00;;
2972;SDS011;1496;51.404;7.232;2022-11-21T02:49:28;32.67;;;20.53;;
2972;SDS011;1496;51.404;7.232;2022-11-21T02:51:58;39.27;;;21.60;;
2972;SDS011;1496;51.404;7.232;2022-11-21T02:54:24;33.00;;;19.57;;
2972;SDS011;1496;51.404;7.232;2022-11-21T02:56:50;37.63;;;22.10;;
2972;SDS011;1496;51.404;7.232;2022-11-21T02:59:15;38.40;;;19.47;;
2972;SDS011;1496;51.404;7.232;2022-11-21T03:01:41;36.87;;;20.70;;
2972;SDS011;1496;51.404;7.232;2022-11-21T03:04:06;39.87;;;19.97;;
2972;SDS011;1496;51.404;7.232;2022-11-21T03:06:32;36.87;;;20.27;;
2972;SDS011;1496;51.404;7.232;2022-11-21T03:08:58;42.13;;;21.57;;
2972;SDS011;1496;51.404;7.232;2022-11-21T03:11:23;35.90;;;21.10;;
2972;SDS011;1496;51.404;7.232;2022-11-21T03:13:49;43.93;;;23.07;;
2972;SDS011;1496;51.404;7.232;2022-11-21T03:16:15;35.43;;;21.70;;
2972;SDS011;1496;51.404;7.232;2022-11-21T03:18:40;40.80;;;21.00;;
2972;SDS011;1496;51.404;7.232;2022-11-21T03:21:06;40.80;;;21.27;;
2972;SDS011;1496;51.404;7.232;2022-11-21T03:23:31;43.93;;;21.70;;
2972;SDS011;1496;51.404;7.232;2022-11-21T03:25:57;42.23;;;21.40;;
2972;SDS011;1496;51.404;7.232;2022-11-21T03:28:23;37.50;;;20.10;;
2972;SDS011;1496;51.404;7.232;2022-11-21T03:30:49;45.50;;;24.17;;
2972;SDS011;1496;51.404;7.232;2022-11-21T03:33:14;44.77;;;22.80;;
2972;SDS011;1496;51.404;7.232;2022-11-21T03:35:40;43.17;;;22.60;;
2972;SDS011;1496;51.404;7.232;2022-11-21T03:38:06;54.40;;;24.50;;
2972;SDS011;1496;51.404;7.232;2022-11-21T03:40:31;46.80;;;24.03;;
2972;SDS011;1496;51.404;7.232;2022-11-21T03:43:02;47.93;;;22.60;;
2972;SDS011;1496;51.404;7.232;2022-11-21T03:45:31;40.80;;;22.73;;
2972;SDS011;1496;51.404;7.232;2022-11-21T03:47:57;51.80;;;23.60;;
2972;SDS011;1496;51.404;7.232;2022-11-21T03:50:23;48.70;;;24.27;;
2972;SDS011;1496;51.404;7.232;2022-11-21T03:52:48;52.47;;;24.00;;
2972;SDS011;1496;51.404;7.232;2022-11-21T03:55:14;52.77;;;24.97;;
2972;SDS011;1496;51.404;7.232;2022-11-21T03:57:40;47.17;;;23.80;;
2972;SDS011;1496;51.404;7.232;2022-11-21T04:00:05;46.40;;;21.70;;
2972;SDS011;1496;51.404;7.232;2022-11-21T04:02:31;47.40;;;24.73;;
2972;SDS011;1496;51.404;7.232;2022-11-21T04:04:57;47.23;;;22.70;;
2972;SDS011;1496;51.404;7.232;2022-11-21T04:07:23;46.93;;;23.57;;
2972;SDS011;1496;51.404;7.232;2022-11-21T04:09:49;48.27;;;21.47;;
2972;SDS011;1496;51.404;7.232;2022-11-21T04:12:15;49.67;;;25.87;;
2972;SDS011;1496;51.404;7.232;2022-11-21T04:14:41;58.33;;;24.77;;
2972;SDS011;1496;51.404;7.232;2022-11-21T04:17:06;56.73;;;25.30;;
2972;SDS011;1496;51.404;7.232;2022-11-21T04:19:32;43.17;;;22.63;;
2972;SDS011;1496;51.404;7.232;2022-11-21T04:21:57;52.50;;;23.97;;
2972;SDS011;1496;51.404;7.232;2022-11-21T04:24:23;57.90;;;25.77;;
2972;SDS011;1496;51.404;7.232;2022-11-21T04:26:48;51.23;;;23.30;;
2972;SDS011;1496;51.404;7.232;2022-11-21T04:29:14;50.23;;;25.27;;
2972;SDS011;1496;51.404;7.232;2022-11-21T04:31:40;50.57;;;24.53;;
2972;SDS011;1496;51.404;7.232;2022-11-21T04:34:05;49.20;;;24.10;;
2972;SDS011;1496;51.404;7.232;2022-11-21T04:36:31;50.83;;;23.87;;
2972;SDS011;1496;51.404;7.232;2022-11-21T04:38:56;58.90;;;25.27;;
2972;SDS011;1496;51.404;7.232;2022-11-21T04:41:22;44.30;;;21.63;;
2972;SDS011;1496;51.404;7.232;2022-11-21T04:43:47;45.33;;;22.57;;
2972;SDS011;1496;51.404;7.232;2022-11-21T04:46:13;42.43;;;20.83;;
2972;SDS011;1496;51.404;7.232;2022-11-21T04:48:39;47.67;;;20.80;;
2972;SDS011;1496;51.404;7.232;2022-11-21T04:51:04;44.57;;;20.73;;
2972;SDS011;1496;51.404;7.232;2022-11-21T04:53:30;42.53;;;21.80;;
2972;SDS011;1496;51.404;7.232;2022-11-21T04:55:55;44.30;;;21.83;;
2972;SDS011;1496;51.404;7.232;2022-11-21T04:58:21;36.43;;;19.63;;
2972;SDS011;1496;51.404;7.232;2022-11-21T05:00:47;39.20;;;21.20;;
2972;SDS011;1496;51.404;7.232;2022-11-21T05:03:12;43.53;;;20.43;;
2972;SDS011;1496;51.404;7.232;2022-11-21T05:05:39;43.10;;;20.00;;
2972;SDS011;1496;51.404;7.232;2022-11-21T05:08:05;40.00;;;20.23;;
2972;SDS011;1496;51.404;7.232;2022-11-21T05:10:30;35.87;;;19.80;;
2972;SDS011;1496;51.404;7.232;2022-11-21T05:13:16;38.37;;;19.50;;
2972;SDS011;1496;51.404;7.232;2022-11-21T05:15:47;35.87;;;19.27;;
2972;SDS011;1496;51.404;7.232;2022-11-21T05:18:16;29.43;;;18.27;;
2972;SDS011;1496;51.404;7.232;2022-11-21T05:20:43;24.00;;;14.27;;
2972;SDS011;1496;51.404;7.232;2022-11-21T05:23:09;25.37;;;13.97;;
2972;SDS011;1496;51.404;7.232;2022-11-21T05:25:34;26.77;;;14.97;;
2972;SDS011;1496;51.404;7.232;2022-11-21T05:28:00;22.13;;;12.37;;
2972;SDS011;1496;51.404;7.232;2022-11-21T05:30:26;27.00;;;14.53;;
2972;SDS011;1496;51.404;7.232;2022-11-21T05:32:51;21.80;;;11.77;;
2972;SDS011;1496;51.404;7.232;2022-11-21T05:35:17;22.57;;;12.50;;
2972;SDS011;1496;51.404;7.232;2022-11-21T05:37:42;23.37;;;13.53;;
2972;SDS011;1496;51.404;7.232;2022-11-21T05:40:08;21.77;;;12.57;;
2972;SDS011;1496;51.404;7.232;2022-11-21T05:42:37;19.97;;;12.27;;
2972;SDS011;1496;51.404;7.232;2022-11-21T05:45:22;26.17;;;10.97;;
2972;SDS011;1496;51.404;7.232;2022-11-21T05:47:48;27.73;;;14.37;;
2972;SDS011;1496;51.404;7.232;2022-11-21T05:50:13;28.33;;;11.93;;
2972;SDS011;1496;51.404;7.232;2022-11-21T05:52:39;34.87;;;18.33;;
2972;SDS011;1496;51.404;7.232;2022-11-21T05:55:04;43.47;;;19.57;;
2972;SDS011;1496;51.404;7.232;2022-11-21T05:57:30;46.63;;;22.13;;
2972;SDS011;1496;51.404;7.232;2022-11-21T05:59:56;46.87;;;19.73;;
2972;SDS011;1496;51.404;7.232;2022-11-21T06:02:21;42.83;;;18.93;;
2972;SDS011;1496;51.404;7.232;2022-11-21T06:05:06;137.77;;;25.60;;
2972;SDS011;1496;51.404;7.232;2022-11-21T06:07:32;66.73;;;20.10;;
2972;SDS011;1496;51.404;7.232;2022-11-21T06:09:57;52.37;;;22.00;;
2972;SDS011;1496;51.404;7.232;2022-11-21T06:12:23;74.63;;;22.83;;
2972;SDS011;1496;51.404;7.232;2022-11-21T06:14:48;36.73;;;18.90;;
2972;SDS011;1496;51.404;7.232;2022-11-21T06:17:14;75.97;;;19.97;;
2972;SDS011;1496;51.404;7.232;2022-11-21T06:19:40;37.40;;;18.57;;
2972;SDS011;1496;51.404;7.232;2022-11-21T06:22:05;102.63;;;22.00;;
2972;SDS011;1496;51.404;7.232;2022-11-21T06:24:31;41.80;;;19.37;;
2972;SDS011;1496;51.404;7.232;2022-11-21T06:26:56;33.10;;;19.00;;
2972;SDS011;1496;51.404;7.232;2022-11-21T06:29:22;43.33;;;20.67;;
2972;SDS011;1496;51.404;7.232;2022-11-21T06:31:48;33.90;;;18.60;;
2972;SDS011;1496;51.404;7.232;2022-11-21T06:34:14;34.47;;;17.13;;
2972;SDS011;1496;51.404;7.232;2022-11-21T06:36:40;47.23;;;21.77;;
2972;SDS011;1496;51.404;7.232;2022-11-21T06:39:06;67.73;;;20.67;;
2972;SDS011;1496;51.404;7.232;2022-11-21T06:41:31;50.40;;;22.37;;
2972;SDS011;1496;51.404;7.232;2022-11-21T06:43:58;54.37;;;22.90;;
2972;SDS011;1496;51.404;7.232;2022-11-21T06:46:25;41.47;;;20.90;;
2972;SDS011;1496;51.404;7.232;2022-11-21T06:48:50;42.37;;;21.80;;
2972;SDS011;1496;51.404;7.232;2022-11-21T06:51:20;42.17;;;21.30;;
2972;SDS011;1496;51.404;7.232;2022-11-21T06:53:47;49.23;;;22.30;;
2972;SDS011;1496;51.404;7.232;2022-11-21T06:56:20;48.63;;;21.00;;
2972;SDS011;1496;51.404;7.232;2022-11-21T06:58:47;44.63;;;21.77;;
2972;SDS011;1496;51.404;7.232;2022-11-21T07:01:13;51.57;;;21.33;;
2972;SDS011;1496;51.404;7.232;2022-11-21T07:03:39;44.73;;;19.53;;
2972;SDS011;1496;51.404;7.232;2022-11-21T07:06:05;37.70;;;20.00;;
2972;SDS011;1496;51.404;7.232;2022-11-21T07:08:31;43.63;;;20.90;;
2972;SDS011;1496;51.404;7.232;2022-11-21T07:11:00;39.90;;;19.97;;
2972;SDS011;1496;51.404;7.232;2022-11-21T07:13:26;39.07;;;21.30;;
2972;SDS011;1496;51.404;7.232;2022-11-21T07:15:53;40.93;;;19.50;;
2972;SDS011;1496;51.404;7.232;2022-11-21T07:18:20;35.10;;;18.33;;
2972;SDS011;1496;51.404;7.232;2022-11-21T07:20:47;30.30;;;17.30;;
2972;SDS011;1496;51.404;7.232;2022-11-21T07:23:18;37.00;;;17.53;;
2972;SDS011;1496;51.404;7.232;2022-11-21T07:25:44;33.67;;;19.20;;
2972;SDS011;1496;51.404;7.232;2022-11-21T07:28:09;30.83;;;17.00;;
2972;SDS011;1496;51.404;7.232;2022-11-21T07:30:35;30.33;;;16.47;;
2972;SDS011;1496;51.404;7.232;2022-11-21T07:33:02;34.03;;;16.40;;
2972;SDS011;1496;51.404;7.232;2022-11-21T07:35:29;27.07;;;16.50;;
2972;SDS011;1496;51.404;7.232;2022-11-21T07:37:55;30.30;;;16.80;;
2972;SDS011;1496;51.404;7.232;2022-11-21T07:40:22;31.20;;;16.50;;
2972;SDS011;1496;51.404;7.232;2022-11-21T07:42:47;36.77;;;16.10;;
2972;SDS011;1496;51.404;7.232;2022-11-21T07:45:13;31.90;;;16.77;;
2972;SDS011;1496;51.404;7.232;2022-11-21T07:47:40;28.80;;;15.87;;
2972;SDS011;1496;51.404;7.232;2022-11-21T07:50:06;36.67;;;16.00;;
2972;SDS011;1496;51.404;7.232;2022-11-21T07:52:33;31.33;;;15.43;;
2972;SDS011;1496;51.404;7.232;2022-11-21T07:54:59;30.63;;;17.27;;
2972;SDS011;1496;51.404;7.232;2022-11-21T07:57:28;36.50;;;16.30;;
2972;SDS011;1496;51.404;7.232;2022-11-21T07:59:54;39.47;;;17.57;;
2972;SDS011;1496;51.404;7.232;2022-11-21T08:02:21;33.93;;;16.00;;
2972;SDS011;1496;51.404;7.232;2022-11-21T08:04:51;37.80;;;16.87;;
2972;SDS011;1496;51.404;7.232;2022-11-21T08:07:17;43.80;;;20.10;;
2972;SDS011;1496;51.404;7.232;2022-11-21T08:09:44;35.23;;;18.57;;
2972;SDS011;1496;51.404;7.232;2022-11-21T08:12:10;43.27;;;18.03;;
2972;SDS011;1496;51.404;7.232;2022-11-21T08:14:36;45.60;;;18.30;;
2972;SDS011;1496;51.404;7.232;2022-11-21T08:17:03;42.40;;;20.80;;
2972;SDS011;1496;51.404;7.232;2022-11-21T08:19:29;37.70;;;18.50;;
2972;SDS011;1496;51.404;7.232;2022-11-21T08:21:54;36.77;;;19.07;;
2972;SDS011;1496;51.404;7.232;2022-11-21T08:24:20;34.47;;;19.50;;
2972;SDS011;1496;51.404;7.232;2022-11-21T08:26:46;38.20;;;20.73;;
2972;SDS011;1496;51.404;7.232;2022-11-21T08:29:12;35.97;;;18.80;;
2972;SDS011;1496;51.404;7.232;2022-11-21T08:31:39;45.13;;;21.23;;
2972;SDS011;1496;51.404;7.232;2022-11-21T08:34:06;44.50;;;22.80;;
2972;SDS011;1496;51.404;7.232;2022-11-21T08:36:32;39.40;;;19.40;;
2972;SDS011;1496;51.404;7.232;2022-11-21T08:38:57;39.30;;;19.27;;
2972;SDS011;1496;51.404;7.232;2022-11-21T08:41:24;36.43;;;19.63;;
2972;SDS011;1496;51.404;7.232;2022-11-21T08:44:08;36.00;;;18.10;;
2972;SDS011;1496;51.404;7.232;2022-11-21T08:46:34;40.80;;;22.90;;
2972;SDS011;1496;51.404;7.232;2022-11-21T08:49:02;46.90;;;20.30;;
2972;SDS011;1496;51.404;7.232;2022-11-21T08:51:28;40.80;;;20.40;;
2972;SDS011;1496;51.404;7.232;2022-11-21T08:53:53;36.97;;;18.83;;
2972;SDS011;1496;51.404;7.232;2022-11-21T08:56:19;38.57;;;19.10;;
2972;SDS011;1496;51.404;7.232;2022-11-21T08:58:45;41.40;;;19.87;;
2972;SDS011;1496;51.404;7.232;2022-11-21T09:01:10;38.17;;;18.73;;
2972;SDS011;1496;51.404;7.232;2022-11-21T09:03:36;39.23;;;18.97;;
2972;SDS011;1496;51.404;7.232;2022-11-21T09:06:01;40.47;;;20.03;;
2972;SDS011;1496;51.404;7.232;2022-11-21T09:08:27;42.10;;;19.20;;
2972;SDS011;1496;51.404;7.232;2022-11-21T09:10:53;50.50;;;19.93;;
2972;SDS011;1496;51.404;7.232;2022-11-21T09:13:19;41.27;;;19.37;;
2972;SDS011;1496;51.404;7.232;2022-11-21T09:15:45;42.93;;;18.70;;
2972;SDS011;1496;51.404;7.232;2022-11-21T09:18:29;39.70;;;19.73;;
2972;SDS011;1496;51.404;7.232;2022-11-21T09:20:54;40.67;;;19.83;;
2972;SDS011;1496;51.404;7.232;2022-11-21T09:23:20;41.50;;;18.90;;
2972;SDS011;1496;51.404;7.232;2022-11-21T09:25:48;36.93;;;19.73;;
2972;SDS011;1496;51.404;7.232;2022-11-21T09:28:14;35.70;;;19.67;;
2972;SDS011;1496;51.404;7.232;2022-11-21T09:30:40;41.13;;;19.97;;
2972;SDS011;1496;51.404;7.232;2022-11-21T09:33:07;37.23;;;18.87;;
2972;SDS011;1496;51.404;7.232;2022-11-21T09:35:37;47.03;;;19.03;;
2972;SDS011;1496;51.404;7.232;2022-11-21T09:38:03;44.13;;;19.83;;
2972;SDS011;1496;51.404;7.232;2022-11-21T09:40:29;42.50;;;18.70;;
2972;SDS011;1496;51.404;7.232;2022-11-21T09:45:48;41.10;;;19.13;;
2972;SDS011;1496;51.404;7.232;2022-11-21T09:48:21;37.67;;;17.67;;
2972;SDS011;1496;51.404;7.232;2022-11-21T09:51:05;43.43;;;19.50;;
2972;SDS011;1496;51.404;7.232;2022-11-21T09:53:39;41.53;;;18.80;;
2972;SDS011;1496;51.404;7.232;2022-11-21T09:56:22;41.87;;;20.73;;
2972;SDS011;1496;51.404;7.232;2022-11-21T10:01:36;37.80;;;18.57;;
2972;SDS011;1496;51.404;7.232;2022-11-21T10:04:02;43.30;;;21.50;;
2972;SDS011;1496;51.404;7.232;2022-11-21T10:06:29;45.20;;;19.73;;
2972;SDS011;1496;51.404;7.232;2022-11-21T10:09:06;34.23;;;18.17;;
2972;SDS011;1496;51.404;7.232;2022-11-21T10:15:13;40.20;;;17.83;;
2972;SDS011;1496;51.404;7.232;2022-11-21T10:23:53;30.03;;;17.47;;
2972;SDS011;1496;51.404;7.232;2022-11-21T10:29:27;34.30;;;17.47;;
2972;SDS011;1496;51.404;7.232;2022-11-21T10:32:00;40.20;;;18.50;;
2972;SDS011;1496;51.404;7.232;2022-11-21T10:34:34;31.27;;;18.83;;
2972;SDS011;1496;51.404;7.232;2022-11-21T10:37:03;35.93;;;18.50;;
2972;SDS011;1496;51.404;7.232;2022-11-21T10:39:47;33.67;;;18.87;;
2972;SDS011;1496;51.404;7.232;2022-11-21T10:45:12;37.17;;;19.03;;
2972;SDS011;1496;51.404;7.232;2022-11-21T10:47:42;43.80;;;19.77;;
2972;SDS011;1496;51.404;7.232;2022-11-21T10:52:40;31.93;;;19.43;;
2972;SDS011;1496;51.404;7.232;2022-11-21T10:55:10;35.10;;;17.87;;
2972;SDS011;1496;51.404;7.232;2022-11-21T10:57:38;33.97;;;18.80;;
2972;SDS011;1496;51.404;7.232;2022-11-21T11:02:41;36.93;;;18.83;;
2972;SDS011;1496;51.404;7.232;2022-11-21T11:05:27;32.47;;;18.10;;
2972;SDS011;1496;51.404;7.232;2022-11-21T11:11:05;24.77;;;17.27;;
2972;SDS011;1496;51.404;7.232;2022-11-21T11:13:32;29.47;;;17.23;;
2972;SDS011;1496;51.404;7.232;2022-11-21T11:16:15;32.93;;;15.97;;
2972;SDS011;1496;51.404;7.232;2022-11-21T11:21:21;20.00;;;13.50;;
2972;SDS011;1496;51.404;7.232;2022-11-21T11:23:49;20.77;;;13.47;;
2972;SDS011;1496;51.404;7.232;2022-11-21T11:26:19;20.93;;;14.63;;
2972;SDS011;1496;51.404;7.232;2022-11-21T11:28:53;23.00;;;13.80;;
2972;SDS011;1496;51.404;7.232;2022-11-21T11:31:42;19.47;;;13.60;;
2972;SDS011;1496;51.404;7.232;2022-11-21T11:34:14;22.13;;;13.80;;
2972;SDS011;1496;51.404;7.232;2022-11-21T11:39:35;24.33;;;13.90;;
2972;SDS011;1496;51.404;7.232;2022-11-21T11:45:14;20.57;;;12.27;;
2972;SDS011;1496;51.404;7.232;2022-11-21T11:48:07;20.87;;;13.10;;
2972;SDS011;1496;51.404;7.232;2022-11-21T11:50:47;23.53;;;13.37;;
2972;SDS011;1496;51.404;7.232;2022-11-21T11:53:22;23.00;;;13.67;;
2972;SDS011;1496;51.404;7.232;2022-11-21T11:56:02;20.83;;;13.00;;
2972;SDS011;1496;51.404;7.232;2022-11-21T12:01:16;25.50;;;14.57;;
2972;SDS011;1496;51.404;7.232;2022-11-21T12:08:58;36.40;;;16.50;;
2972;SDS011;1496;51.404;7.232;2022-11-21T12:11:32;24.30;;;14.70;;
2972;SDS011;1496;51.404;7.232;2022-11-21T12:20:21;20.03;;;14.03;;
2972;SDS011;1496;51.404;7.232;2022-11-21T12:23:08;22.27;;;14.90;;
2972;SDS011;1496;51.404;7.232;2022-11-21T12:25:35;18.10;;;13.87;;
2972;SDS011;1496;51.404;7.232;2022-11-21T12:31:19;24.23;;;14.40;;
2972;SDS011;1496;51.404;7.232;2022-11-21T12:37:08;28.53;;;14.37;;
2972;SDS011;1496;51.404;7.232;2022-11-21T12:39:57;23.00;;;13.73;;
2972;SDS011;1496;51.404;7.232;2022-11-21T12:53:55;25.27;;;14.43;;
2972;SDS011;1496;51.404;7.232;2022-11-21T12:59:34;17.70;;;11.90;;
2972;SDS011;1496;51.404;7.232;2022-11-21T13:04:56;18.90;;;12.37;;
2972;SDS011;1496;51.404;7.232;2022-11-21T13:07:24;23.00;;;11.47;;
2972;SDS011;1496;51.404;7.232;2022-11-21T13:09:53;15.57;;;12.10;;
2972;SDS011;1496;51.404;7.232;2022-11-21T13:15:21;14.37;;;11.17;;
2972;SDS011;1496;51.404;7.232;2022-11-21T13:17:55;18.90;;;10.77;;
2972;SDS011;1496;51.404;7.232;2022-11-21T13:20:48;23.27;;;10.93;;
2972;SDS011;1496;51.404;7.232;2022-11-21T13:31:40;10.73;;;8.87;;
2972;SDS011;1496;51.404;7.232;2022-11-21T13:36:50;18.13;;;9.70;;
2972;SDS011;1496;51.404;7.232;2022-11-21T13:44:37;11.93;;;8.17;;
2972;SDS011;1496;51.404;7.232;2022-11-21T13:49:38;13.37;;;9.80;;
2972;SDS011;1496;51.404;7.232;2022-11-21T13:52:26;10.77;;;8.87;;
2972;SDS011;1496;51.404;7.232;2022-11-21T13:55:06;13.17;;;8.30;;
2972;SDS011;1496;51.404;7.232;2022-11-21T13:57:53;17.47;;;8.87;;
2972;SDS011;1496;51.404;7.232;2022-11-21T14:00:35;14.57;;;10.30;;
2972;SDS011;1496;51.404;7.232;2022-11-21T14:06:12;17.43;;;8.93;;
2972;SDS011;1496;51.404;7.232;2022-11-21T14:09:05;10.50;;;6.70;;
2972;SDS011;1496;51.404;7.232;2022-11-21T14:14:28;10.37;;;5.40;;
2972;SDS011;1496;51.404;7.232;2022-11-21T14:19:33;8.60;;;6.37;;
2972;SDS011;1496;51.404;7.232;2022-11-21T14:21:59;10.40;;;5.17;;
2972;SDS011;1496;51.404;7.232;2022-11-21T14:24:25;6.70;;;5.23;;
2972;SDS011;1496;51.404;7.232;2022-11-21T14:26:52;8.77;;;5.60;;
2972;SDS011;1496;51.404;7.232;2022-11-21T14:29:23;8.63;;;5.57;;
2972;SDS011;1496;51.404;7.232;2022-11-21T14:31:51;10.43;;;5.50;;
2972;SDS011;1496;51.404;7.232;2022-11-21T14:34:27;8.27;;;4.70;;
2972;SDS011;1496;51.404;7.232;2022-11-21T14:36:56;6.43;;;4.73;;
2972;SDS011;1496;51.404;7.232;2022-11-21T14:39:27;9.07;;;4.80;;
2972;SDS011;1496;51.404;7.232;2022-11-21T14:41:56;5.63;;;4.90;;
2972;SDS011;1496;51.404;7.232;2022-11-21T14:44:29;9.23;;;5.10;;
2972;SDS011;1496;51.404;7.232;2022-11-21T14:47:29;5.50;;;4.73;;
2972;SDS011;1496;51.404;7.232;2022-11-21T14:49:48;11.33;;;4.77;;
2972;SDS011;1496;51.404;7.232;2022-11-21T14:52:16;6.77;;;4.43;;
2972;SDS011;1496;51.404;7.232;2022-11-21T14:54:59;6.07;;;4.40;;
2972;SDS011;1496;51.404;7.232;2022-11-21T14:57:31;8.07;;;4.90;;
2972;SDS011;1496;51.404;7.232;2022-11-21T15:00:04;6.90;;;3.83;;
2972;SDS011;1496;51.404;7.232;2022-11-21T15:02:31;5.73;;;3.93;;
2972;SDS011;1496;51.404;7.232;2022-11-21T15:05:02;4.10;;;3.63;;
2972;SDS011;1496;51.404;7.232;2022-11-21T15:07:34;7.97;;;4.97;;
2972;SDS011;1496;51.404;7.232;2022-11-21T15:10:04;5.80;;;3.80;;
2972;SDS011;1496;51.404;7.232;2022-11-21T15:15:03;4.33;;;3.63;;
2972;SDS011;1496;51.404;7.232;2022-11-21T15:17:42;5.30;;;4.30;;
2972;SDS011;1496;51.404;7.232;2022-11-21T15:22:40;8.97;;;3.43;;
2972;SDS011;1496;51.404;7.232;2022-11-21T15:25:17;5.93;;;3.60;;
2972;SDS011;1496;51.404;7.232;2022-11-21T15:28:07;3.70;;;3.23;;
2972;SDS011;1496;51.404;7.232;2022-11-21T15:30:38;6.53;;;3.40;;
2972;SDS011;1496;51.404;7.232;2022-11-21T15:33:13;5.37;;;3.43;;
2972;SDS011;1496;51.404;7.232;2022-11-21T15:38:19;3.63;;;2.77;;
2972;SDS011;1496;51.404;7.232;2022-11-21T15:46:01;5.70;;;3.40;;
2972;SDS011;1496;51.404;7.232;2022-11-21T15:48:27;4.60;;;3.43;;
2972;SDS011;1496;51.404;7.232;2022-11-21T15:50:54;4.97;;;3.30;;
2972;SDS011;1496;51.404;7.232;2022-11-21T15:53:20;6.90;;;3.93;;
2972;SDS011;1496;51.404;7.232;2022-11-21T15:55:46;6.87;;;4.10;;
2972;SDS011;1496;51.404;7.232;2022-11-21T15:58:11;5.53;;;3.10;;
2972;SDS011;1496;51.404;7.232;2022-11-21T16:00:37;6.07;;;4.13;;
2972;SDS011;1496;51.404;7.232;2022-11-21T16:03:02;5.93;;;4.00;;
2972;SDS011;1496;51.404;7.232;2022-11-21T16:05:28;3.77;;;3.23;;
2972;SDS011;1496;51.404;7.232;2022-11-21T16:07:54;9.17;;;3.87;;
2972;SDS011;1496;51.404;7.232;2022-11-21T16:10:19;3.67;;;2.90;;
2972;SDS011;1496;51.404;7.232;2022-11-21T16:12:45;6.33;;;3.10;;
2972;SDS011;1496;51.404;7.232;2022-11-21T16:15:12;4.30;;;2.00;;
2972;SDS011;1496;51.404;7.232;2022-11-21T16:17:38;7.20;;;2.40;;
2972;SDS011;1496;51.404;7.232;2022-11-21T16:20:04;5.37;;;2.83;;
2972;SDS011;1496;51.404;7.232;2022-11-21T16:22:30;4.17;;;2.83;;
2972;SDS011;1496;51.404;7.232;2022-11-21T16:24:56;2.63;;;2.10;;
2972;SDS011;1496;51.404;7.232;2022-11-21T16:27:21;3.90;;;3.23;;
2972;SDS011;1496;51.404;7.232;2022-11-21T16:29:47;3.30;;;2.57;;
2972;SDS011;1496;51.404;7.232;2022-11-21T16:32:13;4.63;;;2.57;;
2972;SDS011;1496;51.404;7.232;2022-11-21T16:34:38;4.30;;;2.57;;
2972;SDS011;1496;51.404;7.232;2022-11-21T16:37:04;7.53;;;2.47;;
2972;SDS011;1496;51.404;7.232;2022-11-21T16:39:30;6.07;;;2.57;;
2972;SDS011;1496;51.404;7.232;2022-11-21T16:41:55;6.03;;;2.40;;
2972;SDS011;1496;51.404;7.232;2022-11-21T16:44:21;5.00;;;2.80;;
2972;SDS011;1496;51.404;7.232;2022-11-21T16:46:46;4.07;;;2.10;;
2972;SDS011;1496;51.404;7.232;2022-11-21T16:49:13;6.10;;;2.13;;
2972;SDS011;1496;51.404;7.232;2022-11-21T16:51:39;5.70;;;2.57;;
2972;SDS011;1496;51.404;7.232;2022-11-21T16:54:05;10.23;;;2.60;;
2972;SDS011;1496;51.404;7.232;2022-11-21T16:56:30;8.10;;;2.60;;
2972;SDS011;1496;51.404;7.232;2022-11-21T16:58:56;6.37;;;2.20;;
2972;SDS011;1496;51.404;7.232;2022-11-21T17:01:24;11.43;;;2.50;;
2972;SDS011;1496;51.404;7.232;2022-11-21T17:03:51;7.83;;;2.37;;
2972;SDS011;1496;51.404;7.232;2022-11-21T17:06:18;12.63;;;2.97;;
2972;SDS011;1496;51.404;7.232;2022-11-21T17:08:47;8.80;;;3.03;;
2972;SDS011;1496;51.404;7.232;2022-11-21T17:11:14;8.57;;;2.40;;